Impacts METAR Board
IDs:

KORD - Chicago/O'Hare Intl, IL, US

Updated at: 1200 UTC 16 Sep 2019
Potential Impact None Slight Moderate High
Time 16/00Z 16/01Z 16/02Z 16/03Z 16/04Z 16/05Z 16/06Z 16/07Z 16/08Z 16/09Z 16/10Z 16/11Z 16/12Z
Temp73 74 73 72 72 71 71 72 71 69 69 68 69
Dewpt70 70 70 70 70 70 69 69 69 68 67 68 67
Altim30.00 30.01 30.01 30.02 30.03 30.02 30.03 30.03 30.04 30.05 30.06 30.08 30.10
VIS10 10 10 10 10 8 8 8 10 9 7 1 3
CIG28 26 60 32 -- -- -- 30 30 34 33 4 5
CoverBKNOVCBKNBKNSCTFEWSCTBKNBKNBKNBKNOVCOVC
FltCatMVFRMVFRVFRVFRVFRVFRVFRMVFRMVFRVFRVFRLIFRIFR
WX----------------------BRBR
WDir17000000300036036034036020
WSpd5 0 0 0 0 0 3 0 5 4 5 7 10
WGst-- -- -- -- -- -- -- -- -- -- -- -- --
Raw hourly METARs
KORD 152351Z 17005KT 10SM SCT022 BKN028 BKN039 23/21 A3000 RMK AO2 RAE26 SLP155 P0001 60001 T02280211 10256 20217 53007 $
KORD 160051Z 00000KT 10SM BKN026 BKN037 OVC060 23/21 A3001 RMK AO2 SLP157 T02330211 $
KORD 160151Z 00000KT 10SM FEW021 SCT037 BKN060 23/21 A3001 RMK AO2 SLP158 T02280211 $
KORD 160251Z 00000KT 10SM FEW020 BKN032 22/21 A3002 RMK AO2 SLP162 T02220211 53006 $
KORD 160351Z 00000KT 10SM FEW020 SCT039 22/21 A3003 RMK AO2 SLP164 T02220211 $
KORD 160451Z 00000KT 8SM FEW030 FEW060 22/21 A3002 RMK AO2 SLP162 T02170211 $
KORD 160551Z 30003KT 8SM SCT030 22/21 A3003 RMK AO2 SLP164 T02170206 10233 20217 402560172 51002 $
KORD 160651Z 00000KT 8SM BKN030 22/21 A3003 RMK AO2 SLP166 T02220206 $
KORD 160751Z 36005KT 10SM BKN030 BKN036 22/21 A3004 RMK AO2 SLP168 T02170206 $
KORD 160851Z 36004KT 9SM BKN034 21/20 A3005 RMK AO2 SLP170 T02060200 51007 $
KORD 160951Z 34005KT 7SM FEW005 BKN033 21/19 A3006 RMK AO2 SLP176 T02060194 $
KORD 161051Z 36007KT 1SM R10L/P6000FT BR OVC004 20/20 A3008 RMK AO2 SFC VIS 3 SLP182 T02000200 $
KORD 161203Z 02010KT 3SM BR OVC005 21/19 A3010 RMK AO2 SFC VIS 5 T02060194



Page loaded:  12:36 UTC  |   05:36 AM Pacific  |   06:36 AM Mountain  |   07:36 AM Central  |   08:36 AM Eastern

 

ADVISORIES

FORECASTS

FORECASTS

OBSERVATIONS

USER TOOLS

ABOUT US